CheckWX is a tool to help pilots better visualize weather data.  It is not intended as a substitute for an official pre-flight weather briefing.

01:59:02 UTC

KSYI METAR
Bomar Field-Shelbyville Municipal Airport
Shelbyville, Tennessee, USA
Current

24 mins ago

KSYI 280135Z AUTO 17006KT 3SM BR FEW004 BKN027 OVC035 20/20 A2998 RMK A01
Observed
May-28 @ 01:35 UTC
Wind
  • 170° at 6 KTS
Visibility
Flight Rules
MVFR
Conditions
Mist
Cloud Levels
  • Few at 400' AGL
  • Broken at 2,700' AGL
  • Overcast at 3,500' AGL
Temperature
20°C / 68°F
Dewpoint
20°C / 68°F
Humidity
100%
Altimeter
29.98" Hg
Pressure
1015.22 hPa
Previous

44 mins ago

KSYI 280115Z AUTO 15004KT 5SM BR SCT027 BKN034 OVC110 20/20 A2997 RMK A01
Observed
May-28 @ 01:15 UTC
Wind
  • 150° at 4 KTS
Visibility
Flight Rules
MVFR
Conditions
Mist
Cloud Levels
  • Scattered at 2,700' AGL
  • Broken at 3,400' AGL
  • Overcast at 11,000' AGL
Temperature
20°C / 68°F
Dewpoint
20°C / 68°F
Humidity
100%
Altimeter
29.97" Hg
Pressure
1014.92 hPa
Previous

1 hour ago

KSYI 280055Z AUTO 13004KT 8SM SCT027 BKN070 OVC110 20/20 A2996 RMK A01 P0011
Observed
May-28 @ 00:55 UTC
Wind
  • 130° at 4 KTS
Visibility
Flight Rules
VFR
Cloud Levels
  • Scattered at 2,700' AGL
  • Broken at 7,000' AGL
  • Overcast at 11,000' AGL
Temperature
20°C / 68°F
Dewpoint
20°C / 68°F
Humidity
100%
Altimeter
29.96" Hg
Pressure
1014.52 hPa
Current Rain
0.11"